Time;durP1;ratioP1;P1;durP2;ratioP2;P2;SDS_P1;SDS_P2;PMS_P1;PMS_P2;Temp;Humidity;BMP_temperature;BMP_pressure;BME280_temperature;BME280_humidity;BME280_pressure;Samples;Min_cycle;Max_cycle;Signal;HPM_P1;HPM_P2
2022/09/28 00:01:30;;;;;;;;;;;7.40;99.90;;;;;;5085886;28;20504;-79
2022/09/28 00:03:57;;;;;;;;;;;7.50;99.90;;;;;;5051309;28;20021;-80
2022/09/28 00:06:24;;;;;;;;;;;7.40;99.90;;;;;;5069168;28;20058;-79
2022/09/28 00:08:50;;;;;;;;;;;7.40;99.90;;;;;;5083977;28;20512;-79
2022/09/28 00:11:17;;;;;;;;;;;7.40;99.90;;;;;;5084332;28;20439;-81
2022/09/28 00:13:44;;;;;;;;;;;7.40;99.90;;;;;;5062207;28;19939;-80
2022/09/28 00:16:12;;;;;;;;;;;7.30;99.90;;;;;;5075774;28;20044;-81
2022/09/28 00:18:39;;;;;;;;;;;7.30;99.90;;;;;;5087668;28;19927;-81
2022/09/28 00:21:06;;;;;;;;;;;7.40;99.90;;;;;;5077430;28;19971;-79
2022/09/28 00:23:32;;;;;;;;;;;7.30;99.90;;;;;;5067167;28;19923;-79
2022/09/28 00:26:04;;;;;;;;;;;7.30;99.90;;;;;;5049480;28;20302;-80
2022/09/28 00:28:30;;;;;;;;;;;7.40;99.90;;;;;;5069156;28;20383;-81
2022/09/28 00:30:56;;;;;;;;;;;7.40;99.90;;;;;;5082456;28;20065;-79
2022/09/28 00:33:22;;;;;;;;;;;7.40;99.90;;;;;;5084991;28;20322;-79
2022/09/28 00:35:57;;;;;;;;;;;7.40;99.90;;;;;;5066749;28;19939;-81
2022/09/28 00:38:27;;;;;;;;;;;7.40;99.90;;;;;;5044634;28;19929;-80
2022/09/28 00:40:54;;;;;;;;;;;7.40;99.90;;;;;;5060453;28;19981;-82
2022/09/28 00:43:21;;;;;;;;;;;7.40;99.90;;;;;;5058689;28;19924;-80
2022/09/28 00:45:52;;;;;;;;;;;7.40;99.90;;;;;;5084400;28;20058;-79
2022/09/28 00:48:18;;;;;;;;;;;7.40;99.90;;;;;;5084679;28;19924;-80
2022/09/28 00:50:46;;;;;;;;;;;7.50;99.90;;;;;;5063064;28;19920;-81
2022/09/28 00:53:18;;;;;;;;;;;7.50;99.90;;;;;;5080288;28;20416;-80
2022/09/28 00:55:50;;;;;;;;;;;7.50;99.90;;;;;;5085938;28;19932;-81
2022/09/28 00:58:18;;;;;;;;;;;7.50;99.90;;;;;;5068617;28;20381;-80
2022/09/28 01:00:44;;;;;;;;;;;7.50;99.90;;;;;;5086467;28;19927;-80
2022/09/28 01:03:13;;;;;;;;;;;7.50;99.90;;;;;;5048032;28;19927;-82
2022/09/28 01:05:39;;;;;;;;;;;7.50;99.90;;;;;;5062879;28;20428;-83
2022/09/28 01:08:06;;;;;;;;;;;7.50;99.90;;;;;;5085581;28;19924;-81
2022/09/28 01:10:32;;;;;;;;;;;7.50;99.90;;;;;;5069392;28;19960;-81
2022/09/28 01:12:59;;;;;;;;;;;7.40;99.90;;;;;;5068686;28;19924;-80
2022/09/28 01:15:26;;;;;;;;;;;7.40;99.90;;;;;;5052707;28;19969;-79
2022/09/28 01:18:19;;;;;;;;;;;7.40;99.90;;;;;;5064068;28;19924;-79
2022/09/28 01:20:57;;;;;;;;;;;7.40;99.90;;;;;;5057929;28;19928;-79
2022/09/28 01:23:32;;;;;;;;;;;7.40;99.90;;;;;;5066086;28;20387;-78
2022/09/28 01:26:17;;;;;;;;;;;7.40;99.90;;;;;;5064892;28;19973;-78
2022/09/28 01:28:46;;;;;;;;;;;7.40;99.90;;;;;;5078300;28;19924;-78
2022/09/28 01:31:13;;;;;;;;;;;7.40;99.90;;;;;;5065138;28;19959;-79
2022/09/28 01:33:57;;;;;;;;;;;7.30;99.90;;;;;;5066630;28;19927;-79
2022/09/28 01:36:30;;;;;;;;;;;7.30;99.90;;;;;;5079274;28;19981;-79
2022/09/28 01:39:01;;;;;;;;;;;7.30;99.90;;;;;;5085384;28;19931;-79
2022/09/28 01:41:29;;;;;;;;;;;7.30;99.90;;;;;;5084615;28;19928;-80
2022/09/28 01:43:56;;;;;;;;;;;7.30;99.90;;;;;;5068510;28;19924;-79
2022/09/28 01:46:34;;;;;;;;;;;7.20;99.90;;;;;;5077190;28;20010;-80
2022/09/28 01:49:21;;;;;;;;;;;7.10;99.90;;;;;;5085747;28;19927;-79
2022/09/28 01:51:50;;;;;;;;;;;7.10;99.90;;;;;;5083848;28;20015;-79
2022/09/28 01:54:22;;;;;;;;;;;7.00;99.90;;;;;;5063316;28;19933;-80
2022/09/28 01:56:57;;;;;;;;;;;7.00;99.90;;;;;;5065885;28;20400;-79
2022/09/28 01:59:27;;;;;;;;;;;6.90;99.90;;;;;;5080787;28;19924;-79
2022/09/28 02:02:04;;;;;;;;;;;6.90;99.90;;;;;;5083902;28;19927;-79
2022/09/28 02:04:34;;;;;;;;;;;6.90;99.90;;;;;;5082184;28;19924;-80
2022/09/28 02:09:36;;;;;;;;;;;6.90;99.90;;;;;;5011554;28;19929;-83
2022/09/28 02:12:08;;;;;;;;;;;6.90;99.90;;;;;;5025622;28;20664;-84
2022/09/28 02:14:36;;;;;;;;;;;6.90;99.90;;;;;;5075607;28;20325;-84
2022/09/28 02:17:02;;;;;;;;;;;6.90;99.90;;;;;;5010105;28;19925;-83
2022/09/28 02:22:52;;;;;;;;;;;7.90;99.90;;;;;;5045732;28;19920;-83
2022/09/28 02:28:21;;;;;;;;;;;6.70;99.90;;;;;;5060056;28;19924;-84
2022/09/28 02:34:09;;;;;;;;;;;6.60;99.90;;;;;;5042750;28;20025;-84
2022/09/28 02:36:35;;;;;;;;;;;6.60;99.90;;;;;;5029387;28;20390;-84
2022/09/28 02:39:22;;;;;;;;;;;6.60;99.90;;;;;;5025958;28;20356;-84
2022/09/28 02:44:45;;;;;;;;;;;6.70;99.90;;;;;;5217253;22;20417;-88
2022/09/28 02:47:27;;;;;;;;;;;6.70;99.90;;;;;;5052714;28;20034;-85
2022/09/28 02:49:52;;;;;;;;;;;6.70;99.90;;;;;;5037346;28;20644;-83
2022/09/28 02:52:24;;;;;;;;;;;6.80;99.90;;;;;;5051819;28;20069;-85
2022/09/28 02:55:09;;;;;;;;;;;6.80;99.90;;;;;;5043181;28;20278;-85
2022/09/28 02:57:49;;;;;;;;;;;6.80;99.90;;;;;;5053676;28;20019;-83
2022/09/28 03:00:21;;;;;;;;;;;6.80;99.90;;;;;;5063207;28;19924;-84
2022/09/28 03:02:50;;;;;;;;;;;6.80;99.90;;;;;;5055681;28;20425;-83
2022/09/28 03:05:37;;;;;;;;;;;6.80;99.90;;;;;;5070725;28;19924;-87
2022/09/28 03:08:09;;;;;;;;;;;6.80;99.90;;;;;;5044992;28;19925;-84
2022/09/28 03:11:08;;;;;;;;;;;6.80;99.90;;;;;;5046895;28;19970;-82
2022/09/28 03:13:34;;;;;;;;;;;6.80;99.90;;;;;;5020162;28;20003;-83
2022/09/28 03:16:27;;;;;;;;;;;6.80;99.90;;;;;;5053670;28;20481;-83
2022/09/28 03:18:53;;;;;;;;;;;6.90;99.90;;;;;;5059702;28;19972;-82
2022/09/28 03:21:21;;;;;;;;;;;6.90;99.90;;;;;;5046991;28;19960;-84
2022/09/28 03:26:55;;;;;;;;;;;6.90;99.90;;;;;;5272738;22;19929;-83
2022/09/28 03:29:21;;;;;;;;;;;6.90;99.90;;;;;;5041549;28;20330;-83
2022/09/28 03:31:47;;;;;;;;;;;6.70;99.90;;;;;;5062848;28;20508;-84
2022/09/28 03:44:48;;;;;;;;;;;6.90;99.90;;;;;;5084791;28;20398;-83
2022/09/28 03:47:16;;;;;;;;;;;6.90;99.90;;;;;;5058830;28;19959;-85
2022/09/28 03:49:42;;;;;;;;;;;6.90;99.90;;;;;;5044696;28;19936;-82
2022/09/28 03:52:07;;;;;;;;;;;6.90;99.90;;;;;;5078864;28;19929;-84
2022/09/28 03:54:33;;;;;;;;;;;6.90;99.90;;;;;;5087744;27;19928;-84
2022/09/28 03:56:59;;;;;;;;;;;6.90;99.90;;;;;;5058407;27;19946;-83
2022/09/28 03:59:30;;;;;;;;;;;6.90;99.90;;;;;;5109145;23;19928;-86
2022/09/28 04:01:56;;;;;;;;;;;6.90;99.90;;;;;;5051483;28;19924;-85
2022/09/28 04:04:22;;;;;;;;;;;6.90;99.90;;;;;;5065068;28;19924;-84
2022/09/28 04:06:48;;;;;;;;;;;6.80;99.90;;;;;;5049476;28;19931;-84
2022/09/28 04:09:20;;;;;;;;;;;6.90;99.90;;;;;;5036318;28;19986;-82
2022/09/28 04:11:46;;;;;;;;;;;6.80;99.90;;;;;;5034362;28;20018;-85
2022/09/28 04:14:24;;;;;;;;;;;6.80;99.90;;;;;;5051127;28;19939;-83
2022/09/28 04:16:53;;;;;;;;;;;6.80;99.90;;;;;;5050968;28;19920;-87
2022/09/28 04:19:25;;;;;;;;;;;6.70;99.90;;;;;;5051813;28;19996;-84
2022/09/28 04:21:51;;;;;;;;;;;6.70;99.90;;;;;;5050855;28;19928;-89
2022/09/28 04:24:32;;;;;;;;;;;6.60;99.90;;;;;;5051774;28;19982;-88
2022/09/28 04:29:14;;;;;;;;;;;6.50;99.90;;;;;;5049690;28;19932;-87
2022/09/28 04:35:57;;;;;;;;;;;6.40;99.90;;;;;;6190091;22;19911;-80
2022/09/28 04:38:22;;;;;;;;;;;6.40;99.90;;;;;;5059347;28;19931;-80
2022/09/28 04:40:48;;;;;;;;;;;6.40;99.90;;;;;;5026854;28;19932;-88
2022/09/28 04:43:14;;;;;;;;;;;6.40;99.90;;;;;;5037092;28;20605;-88
2022/09/28 04:45:40;;;;;;;;;;;6.50;99.90;;;;;;5047599;28;19928;-80
2022/09/28 04:48:06;;;;;;;;;;;6.40;99.90;;;;;;5019638;28;19925;-81
2022/09/28 04:50:41;;;;;;;;;;;6.40;99.90;;;;;;5049737;28;19928;-80
2022/09/28 04:53:07;;;;;;;;;;;6.40;99.90;;;;;;5046607;28;20282;-83
2022/09/28 04:55:32;;;;;;;;;;;6.40;99.90;;;;;;5091634;22;20411;-82
2022/09/28 04:58:07;;;;;;;;;;;6.40;99.90;;;;;;5052062;28;19924;-85
2022/09/28 05:00:34;;;;;;;;;;;6.40;99.90;;;;;;5058236;28;20424;-82
2022/09/28 05:03:03;;;;;;;;;;;6.50;99.90;;;;;;5030232;28;19925;-86
2022/09/28 05:05:53;;;;;;;;;;;6.50;99.90;;;;;;5060762;28;19927;-85
2022/09/28 05:08:56;;;;;;;;;;;6.40;99.90;;;;;;5042014;28;19935;-85
2022/09/28 05:11:22;;;;;;;;;;;6.40;99.90;;;;;;5046494;28;19932;-83
2022/09/28 05:13:49;;;;;;;;;;;6.50;99.90;;;;;;5056801;28;19925;-83
2022/09/28 05:16:19;;;;;;;;;;;6.40;99.90;;;;;;5040884;28;20530;-82
2022/09/28 05:19:05;;;;;;;;;;;6.50;99.90;;;;;;5059896;28;20015;-85
2022/09/28 05:21:30;;;;;;;;;;;7.70;99.90;;;;;;5062843;28;20712;-82
2022/09/28 05:23:57;;;;;;;;;;;6.50;99.90;;;;;;5175111;22;20035;-81
2022/09/28 05:26:29;;;;;;;;;;;6.50;99.90;;;;;;5030762;28;19985;-81
2022/09/28 05:28:55;;;;;;;;;;;6.50;99.90;;;;;;5045464;28;20038;-81
2022/09/28 05:31:21;;;;;;;;;;;6.40;99.90;;;;;;5036642;28;20763;-82
2022/09/28 05:33:46;;;;;;;;;;;6.40;99.90;;;;;;5055711;28;20394;-82
2022/09/28 05:36:12;;;;;;;;;;;6.40;99.90;;;;;;5045214;28;19935;-83
2022/09/28 05:38:38;;;;;;;;;;;6.40;99.90;;;;;;5039693;28;20015;-83
2022/09/28 05:41:04;;;;;;;;;;;6.40;99.90;;;;;;5030871;28;19924;-85
2022/09/28 05:43:32;;;;;;;;;;;6.30;99.90;;;;;;5080105;28;19924;-85
2022/09/28 05:49:21;;;;;;;;;;;6.40;99.90;;;;;;5086276;22;20001;-85
2022/09/28 05:51:52;;;;;;;;;;;6.30;99.90;;;;;;5018926;28;19927;-84
2022/09/28 05:54:32;;;;;;;;;;;6.30;99.90;;;;;;5056169;28;19947;-81
2022/09/28 05:56:58;;;;;;;;;;;6.30;99.90;;;;;;5188945;22;19923;-83
2022/09/28 06:02:54;;;;;;;;;;;6.30;99.90;;;;;;5095256;28;19973;-82
2022/09/28 06:09:12;;;;;;;;;;;5.40;99.90;;;;;;5090970;28;20438;-83
2022/09/28 06:11:38;;;;;;;;;;;6.30;99.90;;;;;;5057370;28;19920;-83
2022/09/28 06:14:22;;;;;;;;;;;6.30;99.90;;;;;;5053662;28;19923;-83
2022/09/28 06:16:49;;;;;;;;;;;6.30;99.90;;;;;;5060917;28;19928;-83
2022/09/28 06:19:43;;;;;;;;;;;6.30;99.90;;;;;;5143345;23;19933;-83
2022/09/28 06:22:09;;;;;;;;;;;6.30;99.90;;;;;;5013436;28;19979;-83
2022/09/28 06:24:35;;;;;;;;;;;6.30;99.90;;;;;;5620832;23;19925;-81
2022/09/28 06:27:05;;;;;;;;;;;6.30;99.90;;;;;;5030949;28;20527;-80
2022/09/28 06:33:15;;;;;;;;;;;6.40;99.90;;;;;;5035254;28;20361;-85
2022/09/28 06:48:24;;;;;;;;;;;6.70;99.90;;;;;;5067403;28;19967;-86
2022/09/28 06:50:50;;;;;;;;;;;6.50;99.90;;;;;;5052263;28;19924;-90
2022/09/28 06:59:55;;;;;;;;;;;6.00;99.90;;;;;;5010882;28;19933;-85
2022/09/28 07:02:21;;;;;;;;;;;6.70;99.90;;;;;;5010627;28;19929;-85
2022/09/28 07:10:41;;;;;;;;;;;6.90;99.90;;;;;;5083031;28;20282;-85
2022/09/28 07:13:12;;;;;;;;;;;6.90;99.90;;;;;;5054827;23;20464;-83
2022/09/28 07:19:15;;;;;;;;;;;7.10;99.90;;;;;;5067269;28;20012;-88
2022/09/28 07:21:59;;;;;;;;;;;6.50;99.90;;;;;;5062288;28;19929;-87
2022/09/28 07:24:54;;;;;;;;;;;7.00;99.90;;;;;;5065423;28;19932;-86
2022/09/28 07:30:09;;;;;;;;;;;7.40;99.90;;;;;;5065221;28;19924;-82
2022/09/28 07:32:54;;;;;;;;;;;7.50;99.90;;;;;;5014647;28;19933;-82
2022/09/28 07:35:54;;;;;;;;;;;7.60;99.90;;;;;;5037327;28;20000;-84
2022/09/28 07:41:43;;;;;;;;;;;7.90;99.90;;;;;;5076355;28;19931;-87
2022/09/28 07:44:51;;;;;;;;;;;8.00;99.90;;;;;;5004612;28;19926;-87
2022/09/28 07:54:00;;;;;;;;;;;7.90;99.90;;;;;;5128495;22;20524;-85
2022/09/28 07:56:52;;;;;;;;;;;8.30;99.90;;;;;;5033145;28;19925;-84
2022/09/28 08:03:17;;;;;;;;;;;8.50;99.90;;;;;;5066265;28;19974;-86
2022/09/28 08:16:15;;;;;;;;;;;9.00;99.90;;;;;;5077307;28;19925;-86
2022/09/28 08:18:43;;;;;;;;;;;8.10;99.90;;;;;;5053880;28;19928;-85
2022/09/28 08:28:41;;;;;;;;;;;8.70;99.90;;;;;;5074628;28;19923;-86
2022/09/28 08:31:22;;;;;;;;;;;9.10;99.90;;;;;;5107536;22;19939;-85
2022/09/28 08:33:53;;;;;;;;;;;;;;;;;;5027402;28;19935;-85
2022/09/28 08:36:41;;;;;;;;;;;9.60;99.90;;;;;;5060824;28;19920;-83
2022/09/28 08:39:08;;;;;;;;;;;9.60;99.90;;;;;;5045907;28;20150;-84
2022/09/28 08:41:37;;;;;;;;;;;9.70;99.90;;;;;;5024736;28;19925;-84
2022/09/28 08:44:11;;;;;;;;;;;9.70;99.90;;;;;;5044329;28;19925;-83
2022/09/28 09:03:43;;;;;;;;;;;11.20;99.90;;;;;;4921918;29;20043;-82
2022/09/28 09:06:22;;;;;;;;;;;11.30;99.90;;;;;;4905392;29;19930;-82
2022/09/28 09:09:03;;;;;;;;;;;11.60;99.90;;;;;;4959796;28;20012;-82
2022/09/28 09:11:39;;;;;;;;;;;;;;;;;;5004301;28;19928;-81
2022/09/28 09:14:15;;;;;;;;;;;12.10;99.90;;;;;;5036043;28;19925;-82
2022/09/28 09:16:40;;;;;;;;;;;12.10;99.90;;;;;;5033204;28;19955;-79
2022/09/28 09:19:34;;;;;;;;;;;12.10;99.90;;;;;;5031782;28;20509;-81
2022/09/28 09:22:14;;;;;;;;;;;12.20;99.90;;;;;;5032757;28;20021;-83
2022/09/28 09:24:50;;;;;;;;;;;12.30;99.90;;;;;;5032513;28;19928;-83
2022/09/28 09:27:22;;;;;;;;;;;12.40;99.90;;;;;;5045519;28;19928;-80
2022/09/28 09:30:03;;;;;;;;;;;12.40;99.90;;;;;;5049665;28;19925;-80
2022/09/28 09:32:55;;;;;;;;;;;12.30;99.90;;;;;;5031421;28;19978;-81
2022/09/28 09:35:36;;;;;;;;;;;12.40;99.90;;;;;;5047068;28;19928;-80
2022/09/28 09:38:21;;;;;;;;;;;12.50;99.90;;;;;;5047251;28;19925;-79
2022/09/28 09:41:05;;;;;;;;;;;12.60;99.90;;;;;;5045116;28;19930;-79
2022/09/28 09:43:41;;;;;;;;;;;12.80;99.90;;;;;;5046243;28;19936;-79
2022/09/28 09:46:25;;;;;;;;;;;12.90;99.90;;;;;;5044967;28;19929;-79
2022/09/28 09:49:03;;;;;;;;;;;12.90;99.90;;;;;;5046712;28;19928;-79
2022/09/28 09:51:44;;;;;;;;;;;13.00;99.90;;;;;;5030272;28;20002;-79
2022/09/28 09:54:28;;;;;;;;;;;13.00;99.90;;;;;;5046499;28;19925;-78
2022/09/28 09:56:57;;;;;;;;;;;13.00;99.90;;;;;;5049777;28;20406;-79
2022/09/28 09:59:32;;;;;;;;;;;13.00;99.90;;;;;;5030729;28;19964;-82
2022/09/28 10:02:00;;;;;;;;;;;13.10;99.90;;;;;;5036275;28;19939;-80
2022/09/28 10:04:28;;;;;;;;;;;13.20;99.90;;;;;;5049495;28;19928;-80
2022/09/28 10:07:02;;;;;;;;;;;13.30;99.90;;;;;;5049574;28;20263;-81
2022/09/28 10:09:38;;;;;;;;;;;13.40;99.90;;;;;;5046495;28;19935;-80
2022/09/28 10:12:07;;;;;;;;;;;13.40;99.90;;;;;;5033250;28;19989;-80
2022/09/28 10:15:01;;;;;;;;;;;13.40;99.90;;;;;;5072947;28;19978;-80
2022/09/28 10:17:35;;;;;;;;;;;13.50;99.90;;;;;;5076784;28;19925;-83
2022/09/28 10:20:17;;;;;;;;;;;13.70;99.90;;;;;;5047630;28;19929;-81
2022/09/28 10:22:44;;;;;;;;;;;13.70;99.90;;;;;;5052886;28;20012;-82
2022/09/28 10:25:11;;;;;;;;;;;13.80;99.90;;;;;;5037127;28;19931;-82
2022/09/28 10:27:39;;;;;;;;;;;13.90;99.90;;;;;;5050238;28;19925;-81
2022/09/28 10:30:08;;;;;;;;;;;13.90;99.90;;;;;;5048581;28;19935;-78
2022/09/28 10:35:18;;;;;;;;;;;14.10;99.90;;;;;;5054965;28;19931;-81
2022/09/28 10:37:53;;;;;;;;;;;14.10;99.90;;;;;;5023946;28;19944;-80
2022/09/28 10:40:40;;;;;;;;;;;14.20;99.90;;;;;;5038956;28;20463;-81
2022/09/28 10:43:43;;;;;;;;;;;14.40;99.90;;;;;;5032746;28;20001;-84
2022/09/28 10:46:14;;;;;;;;;;;14.50;99.90;;;;;;5034468;28;19932;-82
2022/09/28 10:48:58;;;;;;;;;;;14.50;99.90;;;;;;5046710;28;19992;-81
2022/09/28 10:51:43;;;;;;;;;;;14.60;99.90;;;;;;5040876;28;20015;-79
2022/09/28 10:54:21;;;;;;;;;;;14.60;99.90;;;;;;5055552;28;19959;-81
2022/09/28 10:57:23;;;;;;;;;;;14.60;99.90;;;;;;5050686;28;19925;-82
2022/09/28 10:59:57;;;;;;;;;;;14.60;99.90;;;;;;5021953;28;19925;-81
2022/09/28 11:02:30;;;;;;;;;;;14.50;99.90;;;;;;5036704;28;19985;-79
2022/09/28 11:04:58;;;;;;;;;;;14.30;99.90;;;;;;5027099;28;20261;-83
2022/09/28 11:07:31;;;;;;;;;;;14.20;99.90;;;;;;5051889;28;19987;-81
2022/09/28 11:10:00;;;;;;;;;;;14.10;99.90;;;;;;5030388;28;19929;-85
2022/09/28 11:12:30;;;;;;;;;;;13.90;99.90;;;;;;5025939;28;19929;-82
2022/09/28 11:14:59;;;;;;;;;;;13.80;99.90;;;;;;5041246;28;20240;-81
2022/09/28 11:17:40;;;;;;;;;;;13.70;99.90;;;;;;5031146;28;19931;-81
2022/09/28 11:20:23;;;;;;;;;;;13.60;99.90;;;;;;5034282;28;19933;-80
2022/09/28 11:22:50;;;;;;;;;;;13.50;99.90;;;;;;4993364;28;20045;-80
2022/09/28 11:25:16;;;;;;;;;;;13.50;99.90;;;;;;5015310;28;20452;-79
2022/09/28 11:28:04;;;;;;;;;;;13.40;99.90;;;;;;5021268;28;19929;-80
2022/09/28 11:30:39;;;;;;;;;;;13.40;99.90;;;;;;5016284;28;19925;-81
2022/09/28 11:33:18;;;;;;;;;;;13.30;99.90;;;;;;5002786;28;19992;-81
2022/09/28 11:35:53;;;;;;;;;;;13.40;99.90;;;;;;5036818;28;19928;-82
2022/09/28 11:38:26;;;;;;;;;;;13.50;99.90;;;;;;5002304;28;19932;-80
2022/09/28 11:41:06;;;;;;;;;;;13.60;99.90;;;;;;5004719;28;19929;-81
2022/09/28 11:43:33;;;;;;;;;;;13.70;99.90;;;;;;5000539;28;19964;-82
2022/09/28 11:46:24;;;;;;;;;;;13.80;99.90;;;;;;4997748;28;19972;-82
2022/09/28 11:48:55;;;;;;;;;;;14.10;99.90;;;;;;5026395;28;19936;-82
2022/09/28 11:51:27;;;;;;;;;;;14.20;99.90;;;;;;5016429;28;20027;-81
2022/09/28 11:54:13;;;;;;;;;;;14.20;99.90;;;;;;5020012;28;20141;-79
2022/09/28 11:56:42;;;;;;;;;;;14.20;99.90;;;;;;5037477;28;19931;-83
2022/09/28 11:59:09;;;;;;;;;;;;;;;;;;5035006;28;19925;-79
2022/09/28 12:01:35;;;;;;;;;;;14.30;99.90;;;;;;5013413;28;19935;-81
2022/09/28 12:04:01;;;;;;;;;;;;;;;;;;5025005;28;20285;-79
2022/09/28 12:06:32;;;;;;;;;;;14.60;99.90;;;;;;5023784;28;20273;-82
2022/09/28 12:09:02;;;;;;;;;;;14.60;99.90;;;;;;5007073;28;20347;-82
2022/09/28 12:28:12;;;;;;;;;;;13.90;99.90;;;;;;5067980;28;19920;-81
2022/09/28 12:30:40;;;;;;;;;;;13.80;99.90;;;;;;5046229;28;19928;-79
2022/09/28 12:33:11;;;;;;;;;;;13.70;99.90;;;;;;5053386;28;19924;-79
2022/09/28 12:35:59;;;;;;;;;;;13.60;99.90;;;;;;5030860;28;19912;-79
2022/09/28 12:38:28;;;;;;;;;;;13.60;99.90;;;;;;5056566;28;19932;-80
2022/09/28 12:41:09;;;;;;;;;;;13.50;99.90;;;;;;5041482;28;20296;-79
2022/09/28 12:43:57;;;;;;;;;;;13.60;99.90;;;;;;5027839;28;19925;-80
2022/09/28 12:46:29;;;;;;;;;;;13.50;99.90;;;;;;5050355;28;19990;-80
2022/09/28 12:49:04;;;;;;;;;;;13.40;99.90;;;;;;5028181;28;19928;-80
2022/09/28 12:51:41;;;;;;;;;;;13.40;99.90;;;;;;5042754;28;19939;-81
2022/09/28 12:54:33;;;;;;;;;;;13.30;99.90;;;;;;5029426;28;19920;-81
2022/09/28 12:57:18;;;;;;;;;;;13.40;99.90;;;;;;5029289;28;19964;-80
2022/09/28 13:00:00;;;;;;;;;;;13.50;99.90;;;;;;5051364;28;19935;-81
2022/09/28 13:02:26;;;;;;;;;;;13.60;99.90;;;;;;5031486;28;19928;-79
2022/09/28 13:08:13;;;;;;;;;;;13.70;99.90;;;;;;5033416;28;19932;-78
2022/09/28 13:10:44;;;;;;;;;;;13.80;99.90;;;;;;5030857;28;19983;-80
2022/09/28 13:13:13;;;;;;;;;;;13.80;99.90;;;;;;5042762;28;19925;-79
2022/09/28 13:15:55;;;;;;;;;;;13.80;99.90;;;;;;5026682;28;20280;-79
2022/09/28 13:18:39;;;;;;;;;;;13.80;99.90;;;;;;5027403;28;20126;-80
2022/09/28 13:21:05;;;;;;;;;;;13.80;99.90;;;;;;5025796;28;19935;-79
2022/09/28 13:23:34;;;;;;;;;;;13.80;99.90;;;;;;5027324;28;19928;-79
2022/09/28 13:26:23;;;;;;;;;;;13.80;99.90;;;;;;5045376;28;19931;-78
2022/09/28 13:28:54;;;;;;;;;;;13.90;99.90;;;;;;5048010;28;19939;-79
2022/09/28 13:31:30;;;;;;;;;;;13.90;99.90;;;;;;5037709;28;19951;-79
2022/09/28 13:33:58;;;;;;;;;;;14.00;99.90;;;;;;5028173;28;19967;-79
2022/09/28 13:39:50;;;;;;;;;;;14.00;99.90;;;;;;5059159;28;19926;-80
2022/09/28 13:45:51;;;;;;;;;;;14.10;99.90;;;;;;5039660;28;19919;-78
2022/09/28 13:48:43;;;;;;;;;;;14.00;99.90;;;;;;5028965;28;20335;-78
2022/09/28 13:51:32;;;;;;;;;;;14.10;99.90;;;;;;5027203;28;19925;-79
2022/09/28 13:54:07;;;;;;;;;;;14.10;99.90;;;;;;5028602;28;19929;-77
2022/09/28 13:56:43;;;;;;;;;;;14.20;99.90;;;;;;5069851;28;19933;-79
2022/09/28 13:59:15;;;;;;;;;;;14.10;99.90;;;;;;5022216;28;20389;-79
2022/09/28 14:01:49;;;;;;;;;;;14.20;99.90;;;;;;5028715;28;20485;-79
2022/09/28 14:04:18;;;;;;;;;;;13.50;99.90;;;;;;5044981;28;19939;-80
2022/09/28 14:06:48;;;;;;;;;;;14.00;99.90;;;;;;5042905;28;20075;-77
2022/09/28 14:09:16;;;;;;;;;;;14.10;99.90;;;;;;5041839;28;19955;-78
2022/09/28 14:11:59;;;;;;;;;;;14.10;99.90;;;;;;5025023;28;19940;-79
2022/09/28 14:14:27;;;;;;;;;;;14.10;99.90;;;;;;5023311;28;20462;-79
2022/09/28 14:17:12;;;;;;;;;;;14.00;99.90;;;;;;5040517;23;21668;-82
2022/09/28 14:19:41;;;;;;;;;;;14.00;99.90;;;;;;5008433;28;19936;-79
2022/09/28 14:22:41;;;;;;;;;;;14.00;99.90;;;;;;5017752;28;19998;-81
2022/09/28 14:25:13;;;;;;;;;;;14.00;99.90;;;;;;4996395;28;19932;-80
2022/09/28 14:28:01;;;;;;;;;;;14.00;99.90;;;;;;5033920;28;19932;-80
2022/09/28 14:30:37;;;;;;;;;;;13.90;99.90;;;;;;5023234;28;19925;-81
2022/09/28 14:33:14;;;;;;;;;;;13.80;99.90;;;;;;5030550;28;19975;-82
2022/09/28 14:35:55;;;;;;;;;;;13.70;99.90;;;;;;5017028;28;19933;-82
2022/09/28 14:42:06;;;;;;;;;;;13.60;99.90;;;;;;5026066;28;19929;-81
2022/09/28 14:44:56;;;;;;;;;;;13.50;99.90;;;;;;5014072;28;19986;-80
2022/09/28 14:47:36;;;;;;;;;;;13.30;99.90;;;;;;5020421;28;20199;-81
2022/09/28 14:50:20;;;;;;;;;;;13.10;99.90;;;;;;5003070;28;19972;-83
2022/09/28 14:52:53;;;;;;;;;;;13.00;99.90;;;;;;5022737;28;19940;-86
2022/09/28 14:58:37;;;;;;;;;;;12.70;99.90;;;;;;5036363;22;19950;-81
2022/09/28 15:01:03;;;;;;;;;;;;;;;;;;5043054;28;19928;-81
2022/09/28 15:03:31;;;;;;;;;;;12.40;99.90;;;;;;5023326;28;19964;-82
2022/09/28 15:05:58;;;;;;;;;;;12.40;99.90;;;;;;5061026;28;19932;-81
2022/09/28 15:08:34;;;;;;;;;;;12.30;99.90;;;;;;5042773;28;19940;-82
2022/09/28 15:11:00;;;;;;;;;;;12.30;99.90;;;;;;5036477;28;19924;-82
2022/09/28 15:13:30;;;;;;;;;;;12.20;99.90;;;;;;5044470;28;20054;-82
2022/09/28 15:15:59;;;;;;;;;;;12.20;99.90;;;;;;5173327;23;19945;-82
2022/09/28 15:18:50;;;;;;;;;;;12.20;99.90;;;;;;5000787;28;20462;-85
2022/09/28 15:21:17;;;;;;;;;;;12.20;99.90;;;;;;4999190;28;19929;-85
2022/09/28 15:23:44;;;;;;;;;;;12.20;99.90;;;;;;5011269;28;19924;-84
2022/09/28 15:26:26;;;;;;;;;;;12.20;99.90;;;;;;5022960;28;19936;-83
2022/09/28 15:28:54;;;;;;;;;;;12.20;99.90;;;;;;5040032;28;19994;-86
2022/09/28 15:31:34;;;;;;;;;;;12.10;99.90;;;;;;5047320;22;19932;-85
2022/09/28 15:39:47;;;;;;;;;;;12.10;99.90;;;;;;4983267;28;19941;-83
2022/09/28 15:42:13;;;;;;;;;;;12.00;99.90;;;;;;5062278;22;20411;-83
2022/09/28 15:56:49;;;;;;;;;;;11.80;99.90;;;;;;5028760;28;20002;-82
2022/09/28 15:59:37;;;;;;;;;;;11.70;99.90;;;;;;5009603;28;20577;-80
2022/09/28 16:02:10;;;;;;;;;;;11.70;99.90;;;;;;5016210;28;20059;-81
2022/09/28 16:04:53;;;;;;;;;;;11.90;99.90;;;;;;5006880;28;20165;-80
2022/09/28 16:07:20;;;;;;;;;;;11.70;99.90;;;;;;5006774;28;19933;-80
2022/09/28 16:10:15;;;;;;;;;;;11.70;99.90;;;;;;5006289;28;19991;-80
2022/09/28 16:12:41;;;;;;;;;;;11.60;99.90;;;;;;5018373;28;20482;-80
2022/09/28 16:15:19;;;;;;;;;;;11.60;99.90;;;;;;5024520;28;19929;-80
2022/09/28 16:17:49;;;;;;;;;;;11.60;99.90;;;;;;5032655;28;19928;-80
2022/09/28 16:20:35;;;;;;;;;;;11.60;99.90;;;;;;5012796;28;19990;-81
2022/09/28 16:23:08;;;;;;;;;;;11.60;99.90;;;;;;5021418;28;19929;-80
2022/09/28 16:25:36;;;;;;;;;;;11.60;99.90;;;;;;5010840;28;20039;-80
2022/09/28 16:28:03;;;;;;;;;;;11.60;99.90;;;;;;5022746;28;19933;-80
2022/09/28 16:30:31;;;;;;;;;;;11.60;99.90;;;;;;5042745;28;19963;-80
2022/09/28 16:33:01;;;;;;;;;;;11.60;99.90;;;;;;5010154;28;19935;-81
2022/09/28 16:35:28;;;;;;;;;;;11.60;99.90;;;;;;5023604;28;19936;-82
2022/09/28 16:37:59;;;;;;;;;;;11.60;99.90;;;;;;5009953;28;19929;-83
2022/09/28 16:40:25;;;;;;;;;;;11.50;99.90;;;;;;5011199;28;19929;-80
2022/09/28 16:42:52;;;;;;;;;;;11.50;99.90;;;;;;4992421;28;19963;-81
2022/09/28 16:45:22;;;;;;;;;;;11.50;99.90;;;;;;5022782;28;19940;-80
2022/09/28 16:47:56;;;;;;;;;;;11.40;99.90;;;;;;5006066;28;19955;-81
2022/09/28 16:50:23;;;;;;;;;;;11.40;99.90;;;;;;5019158;28;20434;-80
2022/09/28 16:55:46;;;;;;;;;;;11.30;99.90;;;;;;5024565;28;19929;-80
2022/09/28 16:58:13;;;;;;;;;;;11.30;99.90;;;;;;5019001;28;20583;-81
2022/09/28 17:00:42;;;;;;;;;;;11.20;99.90;;;;;;5007703;28;19978;-80
2022/09/28 17:03:17;;;;;;;;;;;11.20;99.90;;;;;;5006467;23;20043;-79
2022/09/28 17:05:47;;;;;;;;;;;11.10;99.90;;;;;;4980488;28;19940;-81
2022/09/28 17:08:16;;;;;;;;;;;11.00;99.90;;;;;;4985971;28;19925;-80
2022/09/28 17:10:52;;;;;;;;;;;11.00;99.90;;;;;;4985210;28;20026;-81
2022/09/28 17:13:19;;;;;;;;;;;11.00;99.90;;;;;;4986366;28;19926;-81
2022/09/28 17:15:49;;;;;;;;;;;10.90;99.90;;;;;;4984775;28;20035;-82
2022/09/28 17:18:16;;;;;;;;;;;10.90;99.90;;;;;;4986436;28;19929;-81
2022/09/28 17:20:43;;;;;;;;;;;10.80;99.90;;;;;;4986808;28;19933;-83
2022/09/28 17:23:09;;;;;;;;;;;10.80;99.90;;;;;;4985657;28;19933;-80
2022/09/28 17:25:35;;;;;;;;;;;10.80;99.90;;;;;;4969580;28;19925;-81
2022/09/28 17:28:04;;;;;;;;;;;10.70;99.90;;;;;;5000771;28;20734;-80
2022/09/28 17:30:30;;;;;;;;;;;10.70;99.90;;;;;;4982922;28;19930;-82
2022/09/28 17:32:58;;;;;;;;;;;10.70;99.90;;;;;;4970104;28;20004;-81
2022/09/28 17:35:26;;;;;;;;;;;10.60;99.90;;;;;;4955981;28;19932;-82
2022/09/28 17:37:52;;;;;;;;;;;10.90;99.90;;;;;;4986818;28;20716;-82
2022/09/28 17:40:20;;;;;;;;;;;10.60;99.90;;;;;;4984786;28;19926;-80
2022/09/28 17:42:46;;;;;;;;;;;10.50;99.90;;;;;;4984904;28;19933;-82
2022/09/28 17:45:14;;;;;;;;;;;10.50;99.90;;;;;;4985005;28;19965;-82
2022/09/28 17:47:42;;;;;;;;;;;10.40;99.90;;;;;;5000984;28;20320;-80
2022/09/28 17:50:15;;;;;;;;;;;10.40;99.90;;;;;;4986852;28;20048;-80
2022/09/28 17:55:58;;;;;;;;;;;;;;;;;;4933300;29;19938;-81
2022/09/28 17:58:25;;;;;;;;;;;10.10;99.90;;;;;;4991269;28;20426;-86
2022/09/28 18:00:54;;;;;;;;;;;10.30;99.90;;;;;;4968586;28;19937;-82
2022/09/28 18:03:29;;;;;;;;;;;10.30;99.90;;;;;;4982230;28;19925;-83
2022/09/28 18:06:13;;;;;;;;;;;10.30;99.90;;;;;;4997960;28;19925;-82
2022/09/28 18:08:39;;;;;;;;;;;9.80;99.90;;;;;;5011264;28;20498;-80
2022/09/28 18:11:05;;;;;;;;;;;10.20;99.90;;;;;;5013802;28;19925;-81